createdAt,value
2019-03-01T00:00:12.562Z,99.28
2019-03-01T00:02:39.185Z,86.37
2019-03-01T00:05:45.264Z,91.40
2019-03-01T00:08:35.445Z,89.20
2019-03-01T00:11:36.690Z,80.40
2019-03-01T00:14:27.130Z,77.22
2019-03-01T00:17:17.115Z,77.82
2019-03-01T00:20:35.725Z,82.50
2019-03-01T00:23:43.528Z,81.10
2019-03-01T00:26:33.683Z,80.87
2019-03-01T00:29:18.173Z,81.28
2019-03-01T00:32:13.562Z,83.92
2019-03-01T00:35:28.454Z,74.27
2019-03-01T00:38:37.334Z,78.95
2019-03-01T00:41:51.879Z,73.97
2019-03-01T00:44:30.684Z,70.67
2019-03-01T00:46:57.313Z,71.10
2019-03-01T00:49:23.887Z,75.42
2019-03-01T00:51:50.484Z,67.15
2019-03-01T00:54:17.056Z,75.78
2019-03-01T00:56:43.656Z,70.42
2019-03-01T00:59:10.242Z,74.07
2019-03-01T01:01:36.838Z,70.08
2019-03-01T01:04:03.439Z,65.32
2019-03-01T01:06:30.026Z,63.83
2019-03-01T01:08:56.593Z,73.75
2019-03-01T01:11:23.210Z,63.48
2019-03-01T01:13:49.809Z,70.35
2019-03-01T01:16:16.468Z,69.70
2019-03-01T01:18:43.046Z,63.55
2019-03-01T01:21:09.764Z,67.20
2019-03-01T01:23:36.352Z,66.10
2019-03-01T01:26:03.339Z,65.87
2019-03-01T01:28:29.944Z,70.08
2019-03-01T01:30:56.577Z,71.33
2019-03-01T01:33:23.181Z,68.80
2019-03-01T01:35:49.876Z,62.60
2019-03-01T01:38:16.569Z,66.70
2019-03-01T01:40:43.670Z,69.85
2019-03-01T01:43:10.296Z,69.17
2019-03-01T01:45:36.893Z,73.67
2019-03-01T01:48:03.857Z,71.02
2019-03-01T01:50:30.441Z,76.87
2019-03-01T01:52:57.035Z,71.57
2019-03-01T01:55:23.632Z,73.60
2019-03-01T01:57:50.187Z,68.33
2019-03-01T02:00:16.804Z,70.30
2019-03-01T02:02:43.409Z,74.37
2019-03-01T02:05:10.001Z,62.80
2019-03-01T02:07:36.793Z,62.03
2019-03-01T02:10:04.038Z,61.98
2019-03-01T02:12:30.637Z,66.05
2019-03-01T02:14:57.212Z,63.35
2019-03-01T02:17:23.811Z,62.53
2019-03-01T02:19:50.379Z,64.40
2019-03-01T02:22:16.972Z,65.05
2019-03-01T02:24:43.558Z,63.48
2019-03-01T02:27:24.872Z,60.03
2019-03-01T02:29:51.509Z,63.28
2019-03-01T02:32:26.675Z,56.40
2019-03-01T02:34:53.656Z,60.75
2019-03-01T02:37:20.288Z,60.88
2019-03-01T02:39:46.837Z,64.40
2019-03-01T02:42:13.401Z,69.30
2019-03-01T02:44:39.990Z,60.15
2019-03-01T02:47:06.666Z,53.92
2019-03-01T02:49:33.241Z,56.95
2019-03-01T02:51:59.968Z,55.25
2019-03-01T02:54:26.568Z,56.68
2019-03-01T02:56:53.145Z,69.47
2019-03-01T02:59:19.740Z,64.27
2019-03-01T03:01:46.312Z,59.15
2019-03-01T03:04:12.924Z,58.63
2019-03-01T03:06:45.007Z,68.17
2019-03-01T03:09:12.601Z,61.98
2019-03-01T03:11:39.195Z,56.25
2019-03-01T03:14:05.790Z,66.82
2019-03-01T03:16:32.383Z,67.17
2019-03-01T03:18:58.969Z,64.87
2019-03-01T03:21:25.603Z,63.98
2019-03-01T03:23:52.189Z,63.58
2019-03-01T03:26:19.049Z,68.80
2019-03-01T03:28:46.009Z,63.58
2019-03-01T03:31:12.656Z,65.52
2019-03-01T03:33:39.282Z,63.15
2019-03-01T03:36:05.861Z,66.90
2019-03-01T03:38:32.446Z,57.70
2019-03-01T03:40:59.012Z,59.08
2019-03-01T03:43:25.594Z,60.85
2019-03-01T03:45:52.198Z,66.92
2019-03-01T03:48:18.773Z,59.93
2019-03-01T03:50:45.382Z,63.55
2019-03-01T03:53:11.937Z,62.50
2019-03-01T03:55:38.533Z,59.75
2019-03-01T03:58:05.114Z,59.18
2019-03-01T04:00:31.701Z,61.13
2019-03-01T04:02:58.300Z,64.55
2019-03-01T04:05:24.889Z,64.87
2019-03-01T04:07:51.466Z,58.35
2019-03-01T04:10:18.077Z,64.05
2019-03-01T04:12:45.067Z,64.65
2019-03-01T04:15:12.357Z,69.30
2019-03-01T04:17:38.971Z,66.12
2019-03-01T04:20:07.700Z,68.92
2019-03-01T04:22:34.273Z,69.35
2019-03-01T04:25:00.852Z,68.20
2019-03-01T04:27:27.429Z,64.37
2019-03-01T04:29:54.027Z,59.83
2019-03-01T04:32:20.630Z,63.00
2019-03-01T04:34:47.276Z,69.12
2019-03-01T04:37:13.840Z,71.72
2019-03-01T04:39:40.479Z,71.97
2019-03-01T04:42:07.048Z,66.53
2019-03-01T04:44:33.658Z,72.53
2019-03-01T04:47:00.241Z,71.33
2019-03-01T04:49:26.856Z,74.12
2019-03-01T04:51:53.448Z,71.35
2019-03-01T04:54:20.113Z,70.00
2019-03-01T04:56:46.700Z,74.07
2019-03-01T04:59:13.263Z,76.37
2019-03-01T05:01:39.862Z,71.22
2019-03-01T05:04:06.437Z,78.33
2019-03-01T05:06:33.027Z,77.62
2019-03-01T05:08:59.702Z,73.33
2019-03-01T05:11:26.278Z,70.45
2019-03-01T05:13:52.866Z,68.97
2019-03-01T05:16:19.442Z,73.85
2019-03-01T05:18:46.037Z,69.03
2019-03-01T05:21:12.625Z,67.92
2019-03-01T05:23:39.200Z,66.87
2019-03-01T05:26:05.798Z,75.80
2019-03-01T05:28:32.478Z,70.28
2019-03-01T05:30:59.257Z,72.75
2019-03-01T05:33:25.938Z,84.65
2019-03-01T05:35:52.523Z,75.12
2019-03-01T05:38:22.031Z,66.35
2019-03-01T05:40:47.591Z,71.82
2019-03-01T05:43:14.168Z,73.10
2019-03-01T05:45:40.792Z,71.50
2019-03-01T05:48:07.387Z,72.72
2019-03-01T05:50:33.990Z,74.87
2019-03-01T05:53:00.552Z,65.83
2019-03-01T05:55:27.138Z,73.55
2019-03-01T05:58:27.968Z,71.92
2019-03-01T06:00:57.024Z,66.87
2019-03-01T06:03:47.246Z,72.03
2019-03-01T06:06:16.571Z,66.20
2019-03-01T06:09:06.634Z,74.00
2019-03-01T06:12:21.745Z,72.95
2019-03-01T06:15:10.381Z,73.67
2019-03-01T06:18:30.339Z,68.62
2019-03-01T06:21:08.321Z,75.55
2019-03-01T06:24:16.982Z,70.10
2019-03-01T06:27:04.965Z,75.75
2019-03-01T06:30:13.537Z,78.28
2019-03-01T06:33:28.438Z,72.45
2019-03-01T06:36:25.392Z,75.70
2019-03-01T06:39:48.345Z,78.67
2019-03-01T06:42:39.849Z,74.92
2019-03-01T06:45:51.504Z,79.47
2019-03-01T06:48:34.064Z,76.53
2019-03-01T06:51:07.667Z,76.95
2019-03-01T06:53:34.255Z,76.15
2019-03-01T06:56:02.539Z,73.33
2019-03-01T06:58:35.395Z,79.00
2019-03-01T07:01:09.146Z,84.42
2019-03-01T07:03:35.749Z,82.08
2019-03-01T07:06:03.665Z,70.60
2019-03-01T07:08:30.312Z,76.82
2019-03-01T07:10:56.947Z,85.97
2019-03-01T07:13:23.540Z,74.67
2019-03-01T07:15:50.137Z,76.70
2019-03-01T07:18:16.727Z,72.25
2019-03-01T07:20:43.854Z,75.50
2019-03-01T07:23:10.452Z,88.72
2019-03-01T07:25:37.019Z,88.40
2019-03-01T07:28:03.611Z,78.45
2019-03-01T07:30:30.177Z,86.17
2019-03-01T07:32:56.797Z,80.35
2019-03-01T07:35:23.692Z,74.40
2019-03-01T07:37:50.297Z,94.87
2019-03-01T07:40:17.279Z,84.70
2019-03-01T07:42:43.870Z,73.10
2019-03-01T07:45:10.457Z,68.92
2019-03-01T07:47:37.060Z,73.07
2019-03-01T07:50:04.458Z,85.30
2019-03-01T07:52:31.062Z,67.42
2019-03-01T07:54:57.977Z,71.77
2019-03-01T07:57:24.966Z,67.35
2019-03-01T07:59:51.560Z,70.80
2019-03-01T08:02:18.167Z,68.10
2019-03-01T08:04:44.741Z,65.95
2019-03-01T08:07:11.302Z,74.72
2019-03-01T08:09:37.903Z,67.47
2019-03-01T08:12:07.441Z,72.70
2019-03-01T08:14:33.178Z,67.35
2019-03-01T08:17:00.118Z,71.92
2019-03-01T08:19:26.705Z,70.45
2019-03-01T08:21:53.278Z,74.47
2019-03-01T08:24:19.877Z,72.53
2019-03-01T08:26:46.449Z,70.87
2019-03-01T08:29:13.032Z,70.35
2019-03-01T08:31:39.599Z,79.17
2019-03-01T08:34:06.219Z,74.77
2019-03-01T08:36:32.810Z,86.85
2019-03-01T08:39:02.993Z,82.88
2019-03-01T08:41:27.884Z,89.97
2019-03-01T08:43:54.487Z,81.82
2019-03-01T08:46:21.164Z,88.10
2019-03-01T08:48:47.759Z,84.35
2019-03-01T08:51:14.687Z,81.50
2019-03-01T08:53:41.259Z,77.05
2019-03-01T08:56:10.978Z,65.75
2019-03-01T08:58:37.748Z,73.20
2019-03-01T09:01:08.321Z,61.40
2019-03-01T09:03:38.813Z,55.70
2019-03-01T09:06:05.414Z,56.73
2019-03-01T09:08:31.983Z,56.48
2019-03-01T09:10:58.589Z,56.42
2019-03-01T09:13:25.159Z,53.35
2019-03-01T09:15:51.747Z,53.35
2019-03-01T09:18:18.322Z,54.48
2019-03-01T09:20:44.932Z,53.50
2019-03-01T09:23:22.889Z,57.45
2019-03-01T09:25:41.407Z,49.23
2019-03-01T09:28:08.684Z,58.58
2019-03-01T09:30:35.276Z,60.23
2019-03-01T09:33:01.875Z,64.20
2019-03-01T09:35:45.127Z,56.80
2019-03-01T09:38:11.772Z,53.68
2019-03-01T09:40:38.366Z,46.28
2019-03-01T09:43:04.931Z,55.78
2019-03-01T09:45:36.140Z,50.25
2019-03-01T09:47:59.995Z,50.20
2019-03-01T09:50:26.590Z,46.48
2019-03-01T09:52:55.516Z,44.20
2019-03-01T09:55:21.660Z,45.05
2019-03-01T09:57:48.236Z,37.08
2019-03-01T10:00:16.206Z,37.75
2019-03-01T10:02:42.874Z,42.03
2019-03-01T10:05:10.875Z,49.03
2019-03-01T10:07:37.504Z,51.58
2019-03-01T10:10:06.085Z,51.70
2019-03-01T10:12:32.683Z,52.78
2019-03-01T10:14:59.259Z,61.00
2019-03-01T10:17:25.864Z,55.90
2019-03-01T10:19:52.444Z,55.67
2019-03-01T10:22:19.729Z,49.05
2019-03-01T10:24:46.295Z,49.10
2019-03-01T10:27:13.001Z,51.68
2019-03-01T10:29:39.907Z,63.00
2019-03-01T10:32:06.832Z,47.70
2019-03-01T10:34:33.524Z,48.70
2019-03-01T10:37:00.113Z,50.15
2019-03-01T10:39:26.685Z,40.70
2019-03-01T10:41:53.695Z,43.73
2019-03-01T10:44:20.269Z,47.38
2019-03-01T10:46:46.857Z,50.15
2019-03-01T10:49:13.432Z,50.60
2019-03-01T10:51:40.148Z,55.65
2019-03-01T10:54:06.723Z,56.18
2019-03-01T10:56:33.322Z,58.70
2019-03-01T10:58:59.927Z,65.90
2019-03-01T11:01:26.862Z,66.65
2019-03-01T11:03:53.423Z,73.55
2019-03-01T11:06:20.011Z,74.10
2019-03-01T11:08:46.599Z,87.30
2019-03-01T11:11:13.555Z,82.90
2019-03-01T11:13:40.166Z,90.35
2019-03-01T11:16:06.783Z,93.37
2019-03-01T11:18:33.492Z,131.52
2019-03-01T11:21:00.090Z,141.43
2019-03-01T11:23:26.682Z,140.60
2019-03-01T11:25:56.724Z,135.07
2019-03-01T11:28:23.361Z,128.50
2019-03-01T11:30:49.946Z,127.82
2019-03-01T11:33:16.648Z,128.32
2019-03-01T11:35:43.210Z,125.85
2019-03-01T11:38:09.837Z,129.12
2019-03-01T11:40:36.408Z,119.25
2019-03-01T11:43:03.124Z,108.67
2019-03-01T11:45:29.698Z,101.55
2019-03-01T11:47:56.294Z,115.22
2019-03-01T11:50:22.987Z,109.85
2019-03-01T11:52:49.577Z,98.03
2019-03-01T11:55:16.535Z,101.80
2019-03-01T11:57:43.128Z,107.63
2019-03-01T12:00:12.566Z,96.57
2019-03-01T12:02:39.156Z,104.63
2019-03-01T12:05:07.307Z,94.15
2019-03-01T12:07:33.936Z,92.95
2019-03-01T12:10:00.505Z,94.17
2019-03-01T12:12:27.125Z,110.15
2019-03-01T12:14:53.739Z,111.85
2019-03-01T12:17:20.324Z,106.32
2019-03-01T12:19:46.916Z,106.63
2019-03-01T12:22:17.146Z,108.65
2019-03-01T12:24:41.999Z,118.28
2019-03-01T12:27:08.567Z,114.90
2019-03-01T12:29:35.157Z,127.00
2019-03-01T12:32:01.766Z,114.20
2019-03-01T12:34:28.368Z,130.07
2019-03-01T12:36:54.951Z,132.63
2019-03-01T12:39:21.542Z,124.53
2019-03-01T12:41:48.111Z,143.00
2019-03-01T12:44:14.693Z,115.17
2019-03-01T12:46:41.269Z,108.27
2019-03-01T12:49:07.871Z,102.67
2019-03-01T12:51:34.432Z,95.83
2019-03-01T12:54:01.000Z,93.05
2019-03-01T12:56:27.598Z,105.30
2019-03-01T12:58:54.192Z,107.47
2019-03-01T13:01:20.774Z,98.65
2019-03-01T13:03:47.369Z,95.22
2019-03-01T13:06:13.939Z,97.10
2019-03-01T13:08:40.958Z,97.70
2019-03-01T13:11:07.863Z,84.17
2019-03-01T13:13:38.018Z,88.52
2019-03-01T13:16:02.942Z,89.25
2019-03-01T13:18:29.849Z,82.78
2019-03-01T13:20:56.410Z,77.62
2019-03-01T13:23:22.997Z,71.47
2019-03-01T13:25:49.879Z,72.67
2019-03-01T13:28:16.836Z,72.03
2019-03-01T13:30:43.428Z,64.55
2019-03-01T13:33:10.030Z,61.90
2019-03-01T13:35:36.617Z,63.05
2019-03-01T13:38:04.010Z,56.73
2019-03-01T13:40:30.748Z,56.23
2019-03-01T13:42:57.323Z,56.20
2019-03-01T13:45:23.921Z,52.43
2019-03-01T13:47:50.492Z,56.83
2019-03-01T13:50:18.162Z,46.92
2019-03-01T13:52:44.759Z,54.33
2019-03-01T13:55:11.399Z,55.63
2019-03-01T13:57:37.994Z,60.43
2019-03-01T14:00:05.453Z,63.33
2019-03-01T14:02:32.044Z,53.90
2019-03-01T14:04:58.648Z,62.17
2019-03-01T14:07:25.253Z,63.78
2019-03-01T14:09:51.891Z,64.22
2019-03-01T14:12:18.501Z,55.65
2019-03-01T14:14:45.088Z,49.98
2019-03-01T14:17:11.732Z,56.58
2019-03-01T14:19:38.991Z,50.17
2019-03-01T14:22:10.745Z,57.20
2019-03-01T14:24:35.340Z,56.88
2019-03-01T14:27:01.947Z,57.53
2019-03-01T14:29:28.572Z,62.15
2019-03-01T14:31:55.173Z,56.13
2019-03-01T14:34:22.134Z,49.10
2019-03-01T14:36:48.703Z,53.23
2019-03-01T14:39:15.972Z,54.27
2019-03-01T14:41:42.547Z,56.45
2019-03-01T14:44:09.157Z,59.73
2019-03-01T14:46:35.720Z,55.65
2019-03-01T14:49:02.323Z,52.00
2019-03-01T14:51:28.903Z,49.20
2019-03-01T14:53:55.504Z,55.20
2019-03-01T14:56:26.497Z,56.50
2019-03-01T14:59:21.495Z,49.88
2019-03-01T15:02:10.377Z,51.20
2019-03-01T15:04:36.972Z,45.95
2019-03-01T15:07:03.571Z,43.15
2019-03-01T15:09:30.168Z,51.23
2019-03-01T15:11:56.744Z,47.65
2019-03-01T15:14:23.342Z,59.27
2019-03-01T15:16:49.924Z,57.15
2019-03-01T15:19:16.521Z,57.75
2019-03-01T15:21:43.214Z,61.10
2019-03-01T15:24:09.929Z,62.88
2019-03-01T15:26:36.714Z,58.08
2019-03-01T15:29:05.789Z,53.52
2019-03-01T15:31:32.473Z,56.18
2019-03-01T15:33:59.302Z,54.60
2019-03-01T15:36:25.990Z,47.38
2019-03-01T15:38:52.780Z,46.92
2019-03-01T15:41:19.817Z,51.60
2019-03-01T15:43:46.503Z,55.20
2019-03-01T15:46:14.338Z,47.55
2019-03-01T15:48:41.865Z,47.88
2019-03-01T15:51:08.684Z,45.70
2019-03-01T15:53:35.501Z,42.17
2019-03-01T15:56:05.782Z,35.75
2019-03-01T15:58:33.266Z,37.73
2019-03-01T16:01:00.014Z,37.55
2019-03-01T16:03:26.911Z,43.68
2019-03-01T16:05:53.722Z,37.35
2019-03-01T16:08:20.760Z,48.23
2019-03-01T16:10:47.501Z,36.65
2019-03-01T16:13:14.087Z,46.92
2019-03-01T16:15:40.980Z,34.78
2019-03-01T16:18:08.013Z,38.38
2019-03-01T16:20:34.820Z,33.55
2019-03-01T16:23:01.402Z,43.42
2019-03-01T16:25:28.204Z,39.48
2019-03-01T16:27:55.133Z,38.00
2019-03-01T16:30:22.011Z,38.40
2019-03-01T16:32:50.466Z,29.48
2019-03-01T16:35:17.543Z,32.75
2019-03-01T16:37:46.295Z,35.75
2019-03-01T16:40:15.122Z,32.65
2019-03-01T16:42:41.888Z,35.52
2019-03-01T16:45:10.347Z,34.35
2019-03-01T16:47:38.243Z,33.67
2019-03-01T16:50:09.883Z,40.52
2019-03-01T16:52:36.635Z,35.63
2019-03-01T16:55:04.100Z,33.98
2019-03-01T16:57:31.018Z,38.50
2019-03-01T16:59:57.617Z,39.42
2019-03-01T17:02:24.421Z,33.90
2019-03-01T17:04:51.201Z,34.35
2019-03-01T17:07:18.017Z,33.00
2019-03-01T17:09:47.303Z,28.17
2019-03-01T17:12:13.866Z,32.65
2019-03-01T17:14:42.544Z,36.25
2019-03-01T17:17:09.523Z,36.23
2019-03-01T17:19:36.303Z,29.07
2019-03-01T17:22:03.111Z,33.40
2019-03-01T17:24:30.003Z,31.23
2019-03-01T17:26:56.808Z,31.20
2019-03-01T17:29:23.487Z,44.88
2019-03-01T17:31:50.208Z,34.53
2019-03-01T17:34:17.019Z,30.82
2019-03-01T17:36:43.830Z,31.70
2019-03-01T17:39:10.615Z,35.05
2019-03-01T17:41:37.318Z,32.50
2019-03-01T17:44:04.841Z,27.93
2019-03-01T17:46:33.746Z,25.08
2019-03-01T17:49:00.627Z,22.67
2019-03-01T17:51:28.831Z,25.55
2019-03-01T17:53:55.875Z,25.85
2019-03-01T17:56:22.769Z,22.37
2019-03-01T17:58:49.638Z,20.50
2019-03-01T18:01:16.497Z,19.65
2019-03-01T18:03:43.178Z,26.25
2019-03-01T18:06:13.006Z,20.20
2019-03-01T18:08:39.709Z,21.25
2019-03-01T18:11:08.798Z,21.00
2019-03-01T18:13:36.351Z,21.07
2019-03-01T18:16:03.156Z,27.48
2019-03-01T18:18:29.868Z,24.27
2019-03-01T18:20:56.563Z,23.90
2019-03-01T18:23:23.268Z,18.10
2019-03-01T18:25:50.056Z,17.23
2019-03-01T18:28:17.064Z,19.80
2019-03-01T18:30:43.751Z,22.65
2019-03-01T18:33:10.575Z,21.15
2019-03-01T18:35:37.371Z,18.48
2019-03-01T18:38:04.082Z,20.48
2019-03-01T18:40:30.966Z,22.95
2019-03-01T18:42:57.719Z,20.75
2019-03-01T18:45:24.834Z,20.97
2019-03-01T18:47:51.646Z,18.75
2019-03-01T18:50:23.759Z,19.42
2019-03-01T18:52:53.204Z,18.82
2019-03-01T18:55:19.160Z,23.73
2019-03-01T18:57:45.969Z,20.35
2019-03-01T19:00:21.279Z,24.10
2019-03-01T19:02:47.983Z,27.52
2019-03-01T19:05:15.313Z,23.32
2019-03-01T19:07:42.163Z,20.65
2019-03-01T19:10:09.347Z,20.37
2019-03-01T19:12:36.173Z,22.62
2019-03-01T19:15:03.341Z,33.92
2019-03-01T19:17:30.063Z,29.20
2019-03-01T19:19:56.869Z,24.87
2019-03-01T19:22:24.814Z,29.20
2019-03-01T19:24:52.404Z,34.35
2019-03-01T19:27:19.181Z,34.03
2019-03-01T19:29:45.885Z,24.92
2019-03-01T19:32:12.469Z,26.48
2019-03-01T19:34:39.329Z,28.40
2019-03-01T19:37:06.016Z,22.60
2019-03-01T19:39:35.311Z,28.07
2019-03-01T19:42:01.290Z,23.35
2019-03-01T19:44:29.768Z,30.72
2019-03-01T19:46:56.765Z,25.88
2019-03-01T19:49:23.462Z,40.63
2019-03-01T19:51:50.344Z,34.67
2019-03-01T19:54:17.057Z,32.88
2019-03-01T19:56:43.745Z,27.22
2019-03-01T19:59:10.596Z,26.73
2019-03-01T20:01:37.276Z,24.65
2019-03-01T20:04:04.082Z,25.10
2019-03-01T20:06:30.669Z,30.17
2019-03-01T20:08:57.472Z,26.55
2019-03-01T20:11:26.709Z,22.40
2019-03-01T20:13:53.690Z,24.63
2019-03-01T20:16:22.747Z,29.00
2019-03-01T20:18:50.235Z,30.52
2019-03-01T20:21:17.028Z,27.75
2019-03-01T20:23:43.839Z,32.08
2019-03-01T20:26:10.425Z,27.77
2019-03-01T20:28:37.281Z,27.93
2019-03-01T20:31:04.953Z,32.70
2019-03-01T20:33:32.464Z,26.90
2019-03-01T20:35:59.318Z,23.15
2019-03-01T20:38:26.214Z,29.82
2019-03-01T20:40:53.024Z,28.92
2019-03-01T20:43:19.598Z,28.38
2019-03-01T20:45:46.463Z,27.75
2019-03-01T20:48:13.261Z,26.77
2019-03-01T20:50:40.060Z,31.15
2019-03-01T20:53:06.748Z,24.30
2019-03-01T20:55:37.101Z,31.35
2019-03-01T20:58:03.124Z,27.58
2019-03-01T21:00:30.727Z,26.12
2019-03-01T21:02:57.439Z,33.28
2019-03-01T21:05:25.003Z,25.52
2019-03-01T21:07:53.949Z,31.93
2019-03-01T21:10:21.620Z,26.62
2019-03-01T21:12:48.303Z,34.08
2019-03-01T21:15:15.811Z,29.57
2019-03-01T21:17:45.800Z,32.48
2019-03-01T21:20:15.967Z,33.18
2019-03-01T21:22:41.564Z,32.08
2019-03-01T21:25:09.908Z,33.23
2019-03-01T21:27:36.690Z,27.17
2019-03-01T21:30:05.081Z,28.10
2019-03-01T21:32:31.888Z,41.48
2019-03-01T21:34:58.497Z,27.98
2019-03-01T21:37:25.206Z,33.05
2019-03-01T21:39:51.812Z,30.08
2019-03-01T21:42:20.311Z,29.82
2019-03-01T21:44:47.272Z,33.23
2019-03-01T21:47:13.870Z,26.27
2019-03-01T21:49:40.561Z,26.02
2019-03-01T21:52:07.247Z,25.08
2019-03-01T21:54:34.246Z,26.93
2019-03-01T21:57:01.020Z,31.33
2019-03-01T21:59:27.832Z,18.25
2019-03-01T22:01:54.617Z,25.75
2019-03-01T22:04:21.335Z,22.58
2019-03-01T22:06:48.124Z,21.45
2019-03-01T22:09:15.437Z,24.43
2019-03-01T22:11:42.172Z,20.15
2019-03-01T22:14:10.783Z,20.50
2019-03-01T22:16:39.422Z,26.62
2019-03-01T22:19:07.247Z,21.05
2019-03-01T22:21:34.201Z,29.20
2019-03-01T22:24:00.923Z,26.77
2019-03-01T22:26:27.822Z,19.77
2019-03-01T22:28:54.410Z,16.93
2019-03-01T22:31:21.116Z,15.32
2019-03-01T22:33:48.189Z,18.20
2019-03-01T22:36:17.939Z,18.35
2019-03-01T22:38:43.797Z,13.45
2019-03-01T22:41:10.512Z,15.43
2019-03-01T22:43:37.089Z,22.35
2019-03-01T22:46:03.895Z,19.20
2019-03-01T22:48:30.489Z,13.68
2019-03-01T22:50:57.100Z,20.77
2019-03-01T22:53:23.687Z,20.57
2019-03-01T22:55:50.293Z,14.05
2019-03-01T22:58:16.970Z,19.02
2019-03-01T23:01:06.761Z,23.18
2019-03-01T23:03:33.481Z,15.70
2019-03-01T23:06:00.289Z,15.08
2019-03-01T23:08:27.108Z,14.47
2019-03-01T23:10:56.903Z,17.10
2019-03-01T23:13:22.611Z,18.20
2019-03-01T23:15:49.427Z,14.65
2019-03-01T23:18:16.240Z,12.80
2019-03-01T23:20:42.929Z,11.38
2019-03-01T23:23:09.733Z,14.93
2019-03-01T23:25:36.522Z,14.38
2019-03-01T23:28:04.042Z,16.95
2019-03-01T23:30:32.042Z,11.18
2019-03-01T23:32:58.769Z,10.70
2019-03-01T23:35:25.447Z,12.80
2019-03-01T23:37:52.257Z,13.03
2019-03-01T23:40:19.033Z,16.23
2019-03-01T23:42:46.167Z,11.05
2019-03-01T23:45:13.756Z,10.35
2019-03-01T23:47:41.579Z,11.00
2019-03-01T23:50:08.361Z,12.45
2019-03-01T23:52:35.077Z,11.20
2019-03-01T23:55:02.077Z,15.15
2019-03-01T23:57:28.874Z,10.18
2019-03-01T23:59:58.678Z,21.27
